SKU243 SCCF-SCEL
Flight info
| Callsign | SKU243 |
|---|---|
| Flight time | 1h 34m |
| Altitude | 37000 |
| Route | MARGU UQ814 PAGUN UT296 BUVSA UQ815 MORMI UQ803 OGROS DCT ASIMO ASIMO7D |
| Aircraft | A21N/M-SDE2E3FGHIRWXY/LB1 |
Departure
| Time | 2026-04-19 21:31 |
|---|---|
| Airport | El Loa Airport (SCCF) |
Arrival
| Time | 2026-04-19 23:06 |
|---|---|
| Airport | Comodoro Arturo Merino Benítez International Airport (SCEL) |
| Time | Latitude | Longitude | Altitude | Speed | Heading |
|---|---|---|---|---|---|
| 2026-04-19 21:17 | -22.49594 | -68.90798 | 7514 ft | 0 kts | 3° |
| 2026-04-19 21:21 | -22.49596 | -68.90798 | 7514 ft | 2 kts | 4° |
| 2026-04-19 21:21 | -22.49620 | -68.90801 | 7495 ft | 3 kts | 15° |
| 2026-04-19 21:21 | -22.49642 | -68.90811 | 7502 ft | 3 kts | 37° |
| 2026-04-19 21:21 | -22.49655 | -68.90828 | 7495 ft | 4 kts | 84° |
| 2026-04-19 21:22 | -22.49655 | -68.90834 | 7495 ft | 1 kts | 94° |
| 2026-04-19 21:26 | -22.49656 | -68.90821 | 7501 ft | 3 kts | 94° |
| 2026-04-19 21:26 | -22.49664 | -68.90784 | 7503 ft | 7 kts | 132° |
| 2026-04-19 21:26 | -22.49712 | -68.90773 | 7501 ft | 8 kts | 186° |
| 2026-04-19 21:26 | -22.49779 | -68.90779 | 7508 ft | 11 kts | 173° |
| 2026-04-19 21:27 | -22.49813 | -68.90699 | 7516 ft | 15 kts | 91° |
| 2026-04-19 21:27 | -22.49821 | -68.90574 | 7524 ft | 18 kts | 94° |
| 2026-04-19 21:27 | -22.49831 | -68.90425 | 7531 ft | 21 kts | 94° |
| 2026-04-19 21:27 | -22.49843 | -68.90255 | 7546 ft | 16 kts | 94° |
| 2026-04-19 21:28 | -22.49851 | -68.90133 | 7554 ft | 18 kts | 94° |
| 2026-04-19 21:28 | -22.49861 | -68.89986 | 7564 ft | 21 kts | 94° |
| 2026-04-19 21:28 | -22.49872 | -68.89827 | 7574 ft | 22 kts | 94° |
| 2026-04-19 21:28 | -22.49883 | -68.89667 | 7584 ft | 19 kts | 94° |
| 2026-04-19 21:29 | -22.49893 | -68.89511 | 7594 ft | 22 kts | 94° |
| 2026-04-19 21:29 | -22.49905 | -68.89332 | 7606 ft | 25 kts | 94° |
| 2026-04-19 21:29 | -22.49915 | -68.89190 | 7615 ft | 18 kts | 94° |
| 2026-04-19 21:29 | -22.49924 | -68.89043 | 7625 ft | 21 kts | 94° |
| 2026-04-19 21:30 | -22.49936 | -68.88877 | 7636 ft | 23 kts | 113° |
| 2026-04-19 21:30 | -22.50022 | -68.88844 | 7638 ft | 14 kts | 185° |
| 2026-04-19 21:30 | -22.50101 | -68.88867 | 7638 ft | 5 kts | 238° |
| 2026-04-19 21:30 | -22.50104 | -68.88897 | 7637 ft | 0 kts | 273° |
| 2026-04-19 21:31 | -22.50099 | -68.88983 | 7631 ft | 49 kts | 274° |
| 2026-04-19 21:31 | -22.50049 | -68.89732 | 7584 ft | 147 kts | 274° |
| 2026-04-19 21:31 | -22.49954 | -68.91028 | 7784 ft | 195 kts | 274° |
| 2026-04-19 21:31 | -22.49828 | -68.92598 | 8342 ft | 219 kts | 275° |
| 2026-04-19 21:32 | -22.49685 | -68.94302 | 8721 ft | 244 kts | 275° |
| 2026-04-19 21:32 | -22.49572 | -68.96219 | 9091 ft | 266 kts | 268° |
| 2026-04-19 21:32 | -22.49965 | -68.98212 | 9775 ft | 278 kts | 250° |
| 2026-04-19 21:32 | -22.51062 | -69.00030 | 10127 ft | 304 kts | 227° |
| 2026-04-19 21:33 | -22.52899 | -69.01328 | 10417 ft | 332 kts | 203° |
| 2026-04-19 21:33 | -22.55261 | -69.01761 | 10780 ft | 358 kts | 182° |
| 2026-04-19 21:33 | -22.57743 | -69.01305 | 11531 ft | 364 kts | 167° |
| 2026-04-19 21:33 | -22.60233 | -69.00629 | 12220 ft | 372 kts | 169° |
| 2026-04-19 21:34 | -22.62777 | -68.99986 | 12898 ft | 378 kts | 169° |
| 2026-04-19 21:34 | -22.65368 | -68.99378 | 13601 ft | 385 kts | 169° |
| 2026-04-19 21:34 | -22.68008 | -68.98786 | 14263 ft | 391 kts | 170° |
| 2026-04-19 21:34 | -22.70689 | -68.98196 | 14930 ft | 395 kts | 171° |
| 2026-04-19 21:35 | -22.73397 | -68.97606 | 15621 ft | 398 kts | 171° |
| 2026-04-19 21:35 | -22.76097 | -68.97022 | 16402 ft | 395 kts | 170° |
| 2026-04-19 21:35 | -22.78814 | -68.96429 | 17062 ft | 399 kts | 171° |
| 2026-04-19 21:35 | -22.81545 | -68.95835 | 17690 ft | 403 kts | 171° |
| 2026-04-19 21:36 | -22.84306 | -68.95234 | 18288 ft | 407 kts | 171° |
| 2026-04-19 21:36 | -22.87098 | -68.94626 | 18788 ft | 411 kts | 171° |
| 2026-04-19 21:36 | -22.89918 | -68.94011 | 19281 ft | 416 kts | 172° |
| 2026-04-19 21:36 | -22.92740 | -68.93398 | 19780 ft | 421 kts | 171° |
| 2026-04-19 21:37 | -22.95628 | -68.92769 | 20307 ft | 425 kts | 171° |
| 2026-04-19 21:37 | -22.98547 | -68.92134 | 20827 ft | 430 kts | 171° |
| 2026-04-19 21:37 | -23.01505 | -68.91489 | 21341 ft | 436 kts | 171° |
| 2026-04-19 21:37 | -23.04497 | -68.90836 | 21863 ft | 441 kts | 172° |
| 2026-04-19 21:38 | -23.07519 | -68.90176 | 22388 ft | 446 kts | 171° |
| 2026-04-19 21:38 | -23.09541 | -68.89734 | 22748 ft | 450 kts | 171° |
| 2026-04-19 21:38 | -23.12630 | -68.89059 | 23247 ft | 455 kts | 172° |
| 2026-04-19 21:38 | -23.15753 | -68.88377 | 23722 ft | 460 kts | 172° |
| 2026-04-19 21:39 | -23.18908 | -68.87689 | 24146 ft | 464 kts | 172° |
| 2026-04-19 21:39 | -23.22082 | -68.86994 | 24573 ft | 467 kts | 172° |
| 2026-04-19 21:39 | -23.25282 | -68.86293 | 25049 ft | 469 kts | 172° |
| 2026-04-19 21:39 | -23.28456 | -68.85599 | 25477 ft | 472 kts | 172° |
| 2026-04-19 21:40 | -23.34954 | -68.84399 | 26324 ft | 472 kts | 182° |
| 2026-04-19 21:40 | -23.38213 | -68.84577 | 26710 ft | 467 kts | 193° |
| 2026-04-19 21:40 | -23.41429 | -68.85126 | 27091 ft | 469 kts | 195° |
| 2026-04-19 21:41 | -23.44659 | -68.85726 | 27481 ft | 472 kts | 195° |
| 2026-04-19 21:41 | -23.47904 | -68.86321 | 27881 ft | 475 kts | 195° |
| 2026-04-19 21:41 | -23.51182 | -68.86904 | 28256 ft | 478 kts | 194° |
| 2026-04-19 21:41 | -23.54479 | -68.87479 | 28667 ft | 480 kts | 194° |
| 2026-04-19 21:42 | -23.57794 | -68.88056 | 29053 ft | 483 kts | 194° |
| 2026-04-19 21:42 | -23.61118 | -68.88636 | 29398 ft | 485 kts | 194° |
| 2026-04-19 21:42 | -23.64455 | -68.89221 | 29796 ft | 486 kts | 195° |
| 2026-04-19 21:42 | -23.67794 | -68.89806 | 30249 ft | 485 kts | 195° |
| 2026-04-19 21:43 | -23.71129 | -68.90387 | 30624 ft | 485 kts | 195° |
| 2026-04-19 21:43 | -23.74422 | -68.90966 | 31002 ft | 485 kts | 195° |
| 2026-04-19 21:43 | -23.77753 | -68.91552 | 31386 ft | 485 kts | 195° |
| 2026-04-19 21:43 | -23.81082 | -68.92136 | 31768 ft | 485 kts | 195° |
| 2026-04-19 21:44 | -23.84418 | -68.92723 | 32162 ft | 484 kts | 196° |
| 2026-04-19 21:44 | -23.87744 | -68.93309 | 32535 ft | 484 kts | 196° |
| 2026-04-19 21:44 | -23.91076 | -68.93897 | 32915 ft | 484 kts | 196° |
| 2026-04-19 21:44 | -23.94400 | -68.94484 | 33285 ft | 484 kts | 196° |
| 2026-04-19 21:45 | -23.97723 | -68.95070 | 33619 ft | 484 kts | 196° |
| 2026-04-19 21:45 | -24.01046 | -68.95658 | 33958 ft | 484 kts | 197° |
| 2026-04-19 21:45 | -24.04370 | -68.96247 | 34287 ft | 483 kts | 197° |
| 2026-04-19 21:45 | -24.07684 | -68.96830 | 34613 ft | 482 kts | 197° |
| 2026-04-19 21:46 | -24.10990 | -68.97408 | 34941 ft | 480 kts | 197° |
| 2026-04-19 21:46 | -24.14284 | -68.97989 | 35304 ft | 479 kts | 197° |
| 2026-04-19 21:46 | -24.17566 | -68.98567 | 35638 ft | 477 kts | 197° |
| 2026-04-19 21:46 | -24.20832 | -68.99144 | 35936 ft | 475 kts | 197° |
| 2026-04-19 21:47 | -24.24054 | -68.99713 | 36201 ft | 474 kts | 197° |
| 2026-04-19 21:47 | -24.27314 | -69.00290 | 36468 ft | 473 kts | 197° |
| 2026-04-19 21:47 | -24.30565 | -69.00866 | 36738 ft | 472 kts | 197° |
| 2026-04-19 21:47 | -24.33805 | -69.01439 | 37006 ft | 471 kts | 197° |
| 2026-04-19 21:48 | -24.37042 | -69.02009 | 37109 ft | 471 kts | 197° |
| 2026-04-19 21:48 | -24.43508 | -69.03144 | 37114 ft | 470 kts | 197° |
| 2026-04-19 21:49 | -24.49967 | -69.04292 | 37111 ft | 469 kts | 197° |
| 2026-04-19 21:49 | -24.56417 | -69.05439 | 37108 ft | 470 kts | 197° |
| 2026-04-19 21:50 | -24.62876 | -69.06580 | 37114 ft | 470 kts | 197° |
| 2026-04-19 21:50 | -24.69284 | -69.07731 | 37113 ft | 470 kts | 197° |
| 2026-04-19 21:51 | -24.75746 | -69.08896 | 37129 ft | 470 kts | 197° |
| 2026-04-19 21:51 | -24.82196 | -69.10036 | 37121 ft | 469 kts | 197° |
| 2026-04-19 21:52 | -24.88661 | -69.11153 | 37126 ft | 471 kts | 197° |
| 2026-04-19 21:52 | -24.95136 | -69.12276 | 37130 ft | 470 kts | 197° |
| 2026-04-19 21:53 | -25.01548 | -69.13391 | 37132 ft | 469 kts | 197° |
| 2026-04-19 21:53 | -25.08002 | -69.14511 | 37139 ft | 469 kts | 197° |
| 2026-04-19 21:54 | -25.14444 | -69.15636 | 37138 ft | 469 kts | 197° |
| 2026-04-19 21:54 | -25.20907 | -69.16762 | 37137 ft | 470 kts | 197° |
| 2026-04-19 21:55 | -25.27365 | -69.17896 | 37146 ft | 470 kts | 197° |
| 2026-04-19 21:55 | -25.33827 | -69.19030 | 37150 ft | 470 kts | 197° |
| 2026-04-19 21:56 | -25.40234 | -69.20149 | 37161 ft | 469 kts | 197° |
| 2026-04-19 21:56 | -25.46680 | -69.21280 | 37157 ft | 469 kts | 197° |
| 2026-04-19 21:57 | -25.53129 | -69.22412 | 37158 ft | 469 kts | 197° |
| 2026-04-19 21:57 | -25.59449 | -69.23942 | 37154 ft | 457 kts | 208° |
| 2026-04-19 21:58 | -25.65238 | -69.26709 | 37160 ft | 452 kts | 212° |
| 2026-04-19 21:58 | -25.70994 | -69.29570 | 37147 ft | 454 kts | 212° |
| 2026-04-19 21:59 | -25.76763 | -69.32395 | 37141 ft | 453 kts | 212° |
| 2026-04-19 21:59 | -25.82536 | -69.35211 | 37142 ft | 453 kts | 212° |
| 2026-04-19 22:00 | -25.88300 | -69.38039 | 37144 ft | 453 kts | 212° |
| 2026-04-19 22:00 | -25.94060 | -69.40864 | 37121 ft | 453 kts | 212° |
| 2026-04-19 22:01 | -25.99787 | -69.43672 | 37113 ft | 453 kts | 212° |
| 2026-04-19 22:01 | -26.05549 | -69.46506 | 37093 ft | 453 kts | 212° |
| 2026-04-19 22:02 | -26.11317 | -69.49345 | 37105 ft | 453 kts | 212° |
| 2026-04-19 22:02 | -26.17091 | -69.52183 | 37103 ft | 453 kts | 212° |
| 2026-04-19 22:03 | -26.22864 | -69.55026 | 37091 ft | 453 kts | 212° |
| 2026-04-19 22:03 | -26.28632 | -69.57875 | 37093 ft | 453 kts | 212° |
| 2026-04-19 22:04 | -26.34407 | -69.60733 | 37103 ft | 454 kts | 212° |
| 2026-04-19 22:04 | -26.40148 | -69.63565 | 37107 ft | 454 kts | 212° |
| 2026-04-19 22:05 | -26.45932 | -69.66414 | 37081 ft | 454 kts | 212° |
| 2026-04-19 22:05 | -26.51713 | -69.69287 | 37079 ft | 454 kts | 212° |
| 2026-04-19 22:06 | -26.57486 | -69.72155 | 37078 ft | 454 kts | 212° |
| 2026-04-19 22:06 | -26.63255 | -69.75026 | 37087 ft | 454 kts | 213° |
| 2026-04-19 22:07 | -26.69048 | -69.77905 | 37085 ft | 455 kts | 213° |
| 2026-04-19 22:07 | -26.74801 | -69.80766 | 37050 ft | 455 kts | 212° |
| 2026-04-19 22:08 | -26.80584 | -69.83647 | 37047 ft | 455 kts | 213° |
| 2026-04-19 22:08 | -26.86368 | -69.86535 | 37078 ft | 455 kts | 213° |
| 2026-04-19 22:09 | -26.92160 | -69.89423 | 37052 ft | 455 kts | 213° |
| 2026-04-19 22:09 | -26.97948 | -69.92320 | 37060 ft | 455 kts | 213° |
| 2026-04-19 22:10 | -27.03703 | -69.95195 | 37040 ft | 455 kts | 213° |
| 2026-04-19 22:10 | -27.09486 | -69.98094 | 37037 ft | 456 kts | 213° |
| 2026-04-19 22:11 | -27.15269 | -70.01004 | 37040 ft | 455 kts | 213° |
| 2026-04-19 22:11 | -27.21057 | -70.03901 | 37054 ft | 456 kts | 213° |
| 2026-04-19 22:12 | -27.26870 | -70.06765 | 37022 ft | 459 kts | 210° |
| 2026-04-19 22:12 | -27.32964 | -70.09114 | 37031 ft | 463 kts | 207° |
| 2026-04-19 22:13 | -27.39083 | -70.11399 | 37030 ft | 463 kts | 207° |
| 2026-04-19 22:13 | -27.45199 | -70.13686 | 37032 ft | 463 kts | 207° |
| 2026-04-19 22:14 | -27.51308 | -70.15993 | 37053 ft | 463 kts | 207° |
| 2026-04-19 22:14 | -27.57419 | -70.18304 | 37037 ft | 463 kts | 207° |
| 2026-04-19 22:15 | -27.63496 | -70.20602 | 37035 ft | 463 kts | 207° |
| 2026-04-19 22:15 | -27.69616 | -70.22918 | 37028 ft | 464 kts | 207° |
| 2026-04-19 22:16 | -27.75752 | -70.25241 | 37031 ft | 464 kts | 207° |
| 2026-04-19 22:16 | -27.81874 | -70.27557 | 37051 ft | 464 kts | 207° |
| 2026-04-19 22:17 | -27.88004 | -70.29887 | 37034 ft | 464 kts | 207° |
| 2026-04-19 22:17 | -27.94143 | -70.32218 | 37033 ft | 465 kts | 207° |
| 2026-04-19 22:18 | -28.00244 | -70.34536 | 37024 ft | 465 kts | 207° |
| 2026-04-19 22:18 | -28.06374 | -70.36878 | 37032 ft | 465 kts | 208° |
| 2026-04-19 22:19 | -28.12497 | -70.39236 | 37046 ft | 464 kts | 207° |
| 2026-04-19 22:19 | -28.18611 | -70.41575 | 37039 ft | 464 kts | 207° |
| 2026-04-19 22:20 | -28.24737 | -70.43920 | 37038 ft | 464 kts | 207° |
| 2026-04-19 22:20 | -28.30852 | -70.46259 | 37042 ft | 463 kts | 207° |
| 2026-04-19 22:21 | -28.36951 | -70.48597 | 37029 ft | 463 kts | 207° |
| 2026-04-19 22:21 | -28.43014 | -70.50922 | 37046 ft | 459 kts | 208° |
| 2026-04-19 22:22 | -28.49116 | -70.53218 | 37040 ft | 466 kts | 205° |
| 2026-04-19 22:22 | -28.52335 | -70.53951 | 37046 ft | 478 kts | 194° |
| 2026-04-19 22:22 | -28.55657 | -70.54266 | 37038 ft | 480 kts | 192° |
| 2026-04-19 22:23 | -28.62330 | -70.54776 | 37032 ft | 480 kts | 192° |
| 2026-04-19 22:23 | -28.68997 | -70.55371 | 37055 ft | 480 kts | 193° |
| 2026-04-19 22:24 | -28.75677 | -70.55996 | 37041 ft | 481 kts | 193° |
| 2026-04-19 22:24 | -28.82351 | -70.56626 | 37037 ft | 481 kts | 193° |
| 2026-04-19 22:25 | -28.88967 | -70.57248 | 37049 ft | 481 kts | 193° |
| 2026-04-19 22:25 | -28.95730 | -70.57281 | 37085 ft | 491 kts | 183° |
| 2026-04-19 22:26 | -29.02566 | -70.56683 | 37066 ft | 494 kts | 183° |
| 2026-04-19 22:26 | -29.08263 | -70.56188 | 37073 ft | 493 kts | 183° |
| 2026-04-19 22:27 | -29.15108 | -70.55604 | 37075 ft | 493 kts | 183° |
| 2026-04-19 22:27 | -29.21941 | -70.55020 | 37080 ft | 492 kts | 183° |
| 2026-04-19 22:28 | -29.28763 | -70.54440 | 37091 ft | 491 kts | 183° |
| 2026-04-19 22:28 | -29.35570 | -70.53859 | 37077 ft | 491 kts | 184° |
| 2026-04-19 22:29 | -29.42394 | -70.53275 | 37090 ft | 492 kts | 184° |
| 2026-04-19 22:29 | -29.49229 | -70.52690 | 37094 ft | 492 kts | 184° |
| 2026-04-19 22:30 | -29.55996 | -70.52107 | 37094 ft | 490 kts | 184° |
| 2026-04-19 22:30 | -29.62818 | -70.51523 | 37095 ft | 491 kts | 184° |
| 2026-04-19 22:31 | -29.69609 | -70.50937 | 37090 ft | 490 kts | 184° |
| 2026-04-19 22:31 | -29.76399 | -70.50351 | 37092 ft | 491 kts | 184° |
| 2026-04-19 22:32 | -29.83219 | -70.49761 | 37087 ft | 491 kts | 184° |
| 2026-04-19 22:32 | -29.90033 | -70.49171 | 37091 ft | 491 kts | 184° |
| 2026-04-19 22:33 | -29.96866 | -70.48583 | 37087 ft | 492 kts | 184° |
| 2026-04-19 22:33 | -30.03655 | -70.47994 | 37115 ft | 492 kts | 184° |
| 2026-04-19 22:34 | -30.10520 | -70.47400 | 37092 ft | 495 kts | 184° |
| 2026-04-19 22:34 | -30.17397 | -70.46799 | 37110 ft | 495 kts | 184° |
| 2026-04-19 22:35 | -30.24263 | -70.46202 | 37115 ft | 495 kts | 184° |
| 2026-04-19 22:35 | -30.31138 | -70.45604 | 37147 ft | 494 kts | 184° |
| 2026-04-19 22:36 | -30.38012 | -70.45007 | 37133 ft | 495 kts | 184° |
| 2026-04-19 22:36 | -30.44841 | -70.44410 | 37133 ft | 495 kts | 184° |
| 2026-04-19 22:37 | -30.51714 | -70.43809 | 37130 ft | 495 kts | 184° |
| 2026-04-19 22:37 | -30.58596 | -70.43204 | 37145 ft | 495 kts | 184° |
| 2026-04-19 22:38 | -30.65449 | -70.42602 | 37113 ft | 494 kts | 184° |
| 2026-04-19 22:38 | -30.72300 | -70.42001 | 37071 ft | 492 kts | 185° |
| 2026-04-19 22:39 | -30.79147 | -70.41397 | 37134 ft | 494 kts | 184° |
| 2026-04-19 22:39 | -30.85965 | -70.40798 | 37160 ft | 493 kts | 184° |
| 2026-04-19 22:40 | -30.92794 | -70.40194 | 37145 ft | 492 kts | 184° |
| 2026-04-19 22:40 | -30.99625 | -70.39590 | 37137 ft | 492 kts | 184° |
| 2026-04-19 22:41 | -31.06471 | -70.38984 | 37151 ft | 493 kts | 184° |
| 2026-04-19 22:41 | -31.13300 | -70.38377 | 37160 ft | 491 kts | 184° |
| 2026-04-19 22:42 | -31.20127 | -70.37774 | 37144 ft | 492 kts | 184° |
| 2026-04-19 22:42 | -31.26952 | -70.37167 | 37141 ft | 491 kts | 184° |
| 2026-04-19 22:43 | -31.33779 | -70.36558 | 37152 ft | 491 kts | 184° |
| 2026-04-19 22:43 | -31.40576 | -70.35950 | 37149 ft | 488 kts | 184° |
| 2026-04-19 22:44 | -31.47304 | -70.35351 | 37146 ft | 487 kts | 184° |
| 2026-04-19 22:44 | -31.54083 | -70.34748 | 37135 ft | 489 kts | 184° |
| 2026-04-19 22:44 | -31.57457 | -70.34442 | 36837 ft | 484 kts | 184° |
| 2026-04-19 22:45 | -31.60861 | -70.34140 | 35703 ft | 495 kts | 185° |
| 2026-04-19 22:45 | -31.64325 | -70.33836 | 34606 ft | 503 kts | 185° |
| 2026-04-19 22:45 | -31.67824 | -70.33523 | 33643 ft | 505 kts | 184° |
| 2026-04-19 22:45 | -31.71332 | -70.33205 | 32678 ft | 505 kts | 184° |
| 2026-04-19 22:46 | -31.74841 | -70.32888 | 31713 ft | 506 kts | 184° |
| 2026-04-19 22:46 | -31.78307 | -70.32575 | 30836 ft | 506 kts | 184° |
| 2026-04-19 22:46 | -31.81804 | -70.32259 | 30121 ft | 502 kts | 184° |
| 2026-04-19 22:46 | -31.85255 | -70.32046 | 29411 ft | 488 kts | 190° |
| 2026-04-19 22:47 | -31.88530 | -70.32592 | 28764 ft | 464 kts | 204° |
| 2026-04-19 22:47 | -31.91481 | -70.33868 | 28088 ft | 442 kts | 215° |
| 2026-04-19 22:47 | -31.94094 | -70.35633 | 27510 ft | 427 kts | 221° |
| 2026-04-19 22:47 | -31.96598 | -70.37480 | 26923 ft | 420 kts | 221° |
| 2026-04-19 22:48 | -31.99054 | -70.39298 | 26354 ft | 413 kts | 221° |
| 2026-04-19 22:48 | -32.01480 | -70.41068 | 25825 ft | 408 kts | 220° |
| 2026-04-19 22:48 | -32.03894 | -70.42809 | 25303 ft | 403 kts | 220° |
| 2026-04-19 22:48 | -32.06270 | -70.44522 | 24764 ft | 397 kts | 220° |
| 2026-04-19 22:49 | -32.08619 | -70.46212 | 24229 ft | 393 kts | 220° |
| 2026-04-19 22:49 | -32.10917 | -70.47868 | 23718 ft | 391 kts | 220° |
| 2026-04-19 22:49 | -32.13231 | -70.49532 | 23113 ft | 389 kts | 220° |
| 2026-04-19 22:49 | -32.15542 | -70.51198 | 22550 ft | 389 kts | 220° |
| 2026-04-19 22:50 | -32.17850 | -70.52850 | 21985 ft | 388 kts | 219° |
| 2026-04-19 22:50 | -32.20158 | -70.54510 | 21445 ft | 388 kts | 219° |
| 2026-04-19 22:50 | -32.22459 | -70.56169 | 20898 ft | 387 kts | 219° |
| 2026-04-19 22:50 | -32.24754 | -70.57823 | 20387 ft | 386 kts | 219° |
| 2026-04-19 22:51 | -32.27014 | -70.59465 | 19832 ft | 382 kts | 219° |
| 2026-04-19 22:51 | -32.31525 | -70.62709 | 18995 ft | 377 kts | 219° |
| 2026-04-19 22:51 | -32.33770 | -70.64329 | 18717 ft | 377 kts | 219° |
| 2026-04-19 22:52 | -32.36003 | -70.65939 | 18475 ft | 375 kts | 219° |
| 2026-04-19 22:52 | -32.38227 | -70.67554 | 18214 ft | 374 kts | 219° |
| 2026-04-19 22:52 | -32.40440 | -70.69159 | 17886 ft | 372 kts | 219° |
| 2026-04-19 22:52 | -32.42645 | -70.70762 | 17461 ft | 372 kts | 218° |
| 2026-04-19 22:53 | -32.44853 | -70.72368 | 17000 ft | 373 kts | 218° |
| 2026-04-19 22:53 | -32.47070 | -70.73978 | 16521 ft | 374 kts | 218° |
| 2026-04-19 22:53 | -32.49294 | -70.75590 | 16006 ft | 375 kts | 218° |
| 2026-04-19 22:53 | -32.51524 | -70.77213 | 15525 ft | 377 kts | 218° |
| 2026-04-19 22:54 | -32.53761 | -70.78840 | 15071 ft | 378 kts | 217° |
| 2026-04-19 22:54 | -32.56002 | -70.80469 | 14602 ft | 379 kts | 217° |
| 2026-04-19 22:54 | -32.58351 | -70.81940 | 14111 ft | 385 kts | 205° |
| 2026-04-19 22:54 | -32.60986 | -70.82574 | 13582 ft | 389 kts | 185° |
| 2026-04-19 22:55 | -32.63644 | -70.82449 | 13170 ft | 384 kts | 178° |
| 2026-04-19 22:55 | -32.66265 | -70.82210 | 12835 ft | 371 kts | 178° |
| 2026-04-19 22:55 | -32.68792 | -70.82029 | 12535 ft | 357 kts | 179° |
| 2026-04-19 22:55 | -32.71231 | -70.81899 | 12263 ft | 344 kts | 180° |
| 2026-04-19 22:56 | -32.73591 | -70.81795 | 12016 ft | 334 kts | 180° |
| 2026-04-19 22:56 | -32.75892 | -70.81706 | 11796 ft | 326 kts | 180° |
| 2026-04-19 22:56 | -32.78131 | -70.81620 | 11630 ft | 316 kts | 180° |
| 2026-04-19 22:56 | -32.80291 | -70.81541 | 11489 ft | 305 kts | 180° |
| 2026-04-19 22:57 | -32.82381 | -70.81465 | 11359 ft | 295 kts | 180° |
| 2026-04-19 22:57 | -32.84405 | -70.81392 | 11225 ft | 286 kts | 181° |
| 2026-04-19 22:57 | -32.86362 | -70.81322 | 11053 ft | 277 kts | 180° |
| 2026-04-19 22:57 | -32.88253 | -70.81254 | 10739 ft | 274 kts | 180° |
| 2026-04-19 22:58 | -32.90152 | -70.81186 | 10411 ft | 273 kts | 180° |
| 2026-04-19 22:58 | -32.92044 | -70.81119 | 10091 ft | 271 kts | 180° |
| 2026-04-19 22:58 | -32.93925 | -70.81029 | 9779 ft | 270 kts | 179° |
| 2026-04-19 22:58 | -32.95797 | -70.80926 | 9461 ft | 268 kts | 178° |
| 2026-04-19 22:59 | -32.97647 | -70.80824 | 9158 ft | 265 kts | 178° |
| 2026-04-19 22:59 | -32.99494 | -70.80724 | 8870 ft | 264 kts | 178° |
| 2026-04-19 22:59 | -33.01315 | -70.80625 | 8618 ft | 259 kts | 178° |
| 2026-04-19 22:59 | -33.03074 | -70.80529 | 8339 ft | 255 kts | 178° |
| 2026-04-19 23:00 | -33.04841 | -70.80435 | 7960 ft | 254 kts | 178° |
| 2026-04-19 23:00 | -33.06609 | -70.80324 | 7578 ft | 254 kts | 177° |
| 2026-04-19 23:00 | -33.08378 | -70.80217 | 7217 ft | 255 kts | 177° |
| 2026-04-19 23:00 | -33.10152 | -70.80122 | 6869 ft | 255 kts | 177° |
| 2026-04-19 23:01 | -33.11927 | -70.80028 | 6534 ft | 255 kts | 177° |
| 2026-04-19 23:01 | -33.13699 | -70.79934 | 6186 ft | 254 kts | 177° |
| 2026-04-19 23:01 | -33.15461 | -70.79841 | 5837 ft | 254 kts | 177° |
| 2026-04-19 23:01 | -33.17227 | -70.79748 | 5510 ft | 253 kts | 177° |
| 2026-04-19 23:02 | -33.18987 | -70.79655 | 5169 ft | 253 kts | 177° |
| 2026-04-19 23:02 | -33.20716 | -70.79563 | 4843 ft | 251 kts | 177° |
| 2026-04-19 23:02 | -33.22447 | -70.79472 | 4489 ft | 247 kts | 177° |
| 2026-04-19 23:02 | -33.24139 | -70.79382 | 4163 ft | 239 kts | 178° |
| 2026-04-19 23:03 | -33.25771 | -70.79296 | 3857 ft | 229 kts | 178° |
| 2026-04-19 23:03 | -33.27325 | -70.79213 | 3568 ft | 218 kts | 178° |
| 2026-04-19 23:03 | -33.28759 | -70.79137 | 3361 ft | 194 kts | 178° |
| 2026-04-19 23:03 | -33.30039 | -70.79068 | 3110 ft | 176 kts | 179° |
| 2026-04-19 23:04 | -33.31221 | -70.79005 | 2876 ft | 164 kts | 179° |
| 2026-04-19 23:04 | -33.32323 | -70.78946 | 2658 ft | 151 kts | 180° |
| 2026-04-19 23:04 | -33.33328 | -70.78893 | 2489 ft | 143 kts | 180° |
| 2026-04-19 23:04 | -33.34318 | -70.78841 | 2296 ft | 142 kts | 180° |
| 2026-04-19 23:05 | -33.35236 | -70.78792 | 2099 ft | 125 kts | 180° |
| 2026-04-19 23:05 | -33.36094 | -70.78747 | 1916 ft | 123 kts | 180° |
| 2026-04-19 23:05 | -33.36937 | -70.78702 | 1739 ft | 123 kts | 180° |
| 2026-04-19 23:05 | -33.37793 | -70.78654 | 1587 ft | 121 kts | 179° |
| 2026-04-19 23:06 | -33.38499 | -70.78623 | 1570 ft | 67 kts | 178° |
| 2026-04-19 23:06 | -33.38753 | -70.78613 | 1569 ft | 30 kts | 178° |
| 2026-04-19 23:06 | -33.38945 | -70.78607 | 1571 ft | 25 kts | 179° |
| 2026-04-19 23:06 | -33.39112 | -70.78646 | 1569 ft | 23 kts | 204° |
| 2026-04-19 23:07 | -33.39263 | -70.78740 | 1570 ft | 25 kts | 208° |
| 2026-04-19 23:07 | -33.39420 | -70.78846 | 1570 ft | 17 kts | 210° |
| 2026-04-19 23:07 | -33.39482 | -70.78912 | 1570 ft | 13 kts | 245° |
| 2026-04-19 23:07 | -33.39495 | -70.78965 | 1570 ft | 1 kts | 217° |
| 2026-04-19 23:08 | -33.39515 | -70.78964 | 1570 ft | 4 kts | 178° |
| 2026-04-19 23:08 | -33.39552 | -70.78965 | 1570 ft | 4 kts | 183° |
| 2026-04-19 23:08 | -33.39562 | -70.78966 | 1570 ft | 2 kts | 182° |
| 2026-04-19 23:08 | -33.39563 | -70.78966 | 1570 ft | 0 kts | 182° |